createdAt,value
2018-10-21T00:02:04.272Z,74.21
2018-10-21T00:04:32.334Z,73.80
2018-10-21T00:07:00.403Z,73.84
2018-10-21T00:09:28.478Z,74.36
2018-10-21T00:11:56.549Z,74.38
2018-10-21T00:14:24.598Z,74.02
2018-10-21T00:16:52.668Z,74.07
2018-10-21T00:19:20.752Z,74.43
2018-10-21T00:21:48.980Z,74.03
2018-10-21T00:24:17.041Z,74.38
2018-10-21T00:26:45.108Z,73.90
2018-10-21T00:29:13.174Z,74.54
2018-10-21T00:31:41.268Z,74.29
2018-10-21T00:34:09.332Z,74.66
2018-10-21T00:36:37.397Z,74.22
2018-10-21T00:39:08.591Z,74.66
2018-10-21T00:41:36.600Z,74.28
2018-10-21T00:44:04.981Z,74.76
2018-10-21T00:46:33.049Z,74.64
2018-10-21T00:49:01.108Z,75.26
2018-10-21T00:51:29.210Z,75.46
2018-10-21T00:53:57.344Z,75.00
2018-10-21T00:56:25.402Z,75.39
2018-10-21T00:58:53.464Z,74.98
2018-10-21T01:01:21.532Z,74.93
2018-10-21T01:03:49.602Z,75.04
2018-10-21T01:06:17.681Z,75.16
2018-10-21T01:08:45.765Z,74.98
2018-10-21T01:11:13.854Z,75.11
2018-10-21T01:13:41.936Z,75.58
2018-10-21T01:16:10.004Z,75.52
2018-10-21T01:18:38.060Z,75.62
2018-10-21T01:21:06.173Z,75.26
2018-10-21T01:23:34.210Z,74.97
2018-10-21T01:26:02.264Z,75.31
2018-10-21T01:28:30.352Z,75.50
2018-10-21T01:30:58.436Z,75.49
2018-10-21T01:33:26.519Z,75.42
2018-10-21T01:35:54.590Z,75.72
2018-10-21T01:38:22.728Z,75.68
2018-10-21T01:40:53.026Z,75.94
2018-10-21T01:43:23.337Z,75.49
2018-10-21T01:45:51.423Z,75.57
2018-10-21T01:48:20.628Z,75.49
2018-10-21T01:50:48.692Z,75.90
2018-10-21T01:53:17.587Z,75.60
2018-10-21T01:55:45.636Z,76.33
2018-10-21T01:58:13.689Z,75.84
2018-10-21T02:00:42.299Z,75.97
2018-10-21T02:03:10.487Z,75.77
2018-10-21T02:05:38.954Z,76.16
2018-10-21T02:08:07.027Z,75.79
2018-10-21T02:10:35.105Z,76.14
2018-10-21T02:13:03.201Z,76.50
2018-10-21T02:15:31.240Z,75.86
2018-10-21T02:17:59.300Z,76.31
2018-10-21T02:20:27.780Z,75.76
2018-10-21T02:22:55.847Z,75.99
2018-10-21T02:25:23.880Z,76.07
2018-10-21T02:27:52.716Z,76.56
2018-10-21T02:30:21.999Z,76.55
2018-10-21T02:32:50.694Z,77.40
2018-10-21T02:35:19.276Z,77.50
2018-10-21T02:37:47.661Z,76.98
2018-10-21T02:41:29.447Z,77.33
2018-10-21T02:43:57.511Z,77.15
2018-10-21T02:46:25.789Z,76.73
2018-10-21T02:48:54.895Z,77.13
2018-10-21T02:51:22.945Z,76.74
2018-10-21T02:53:51.072Z,76.94
2018-10-21T02:56:19.120Z,76.87
2018-10-21T02:58:47.208Z,76.76
2018-10-21T03:01:15.272Z,77.35
2018-10-21T03:03:43.328Z,77.39
2018-10-21T03:06:11.374Z,76.89
2018-10-21T03:08:39.876Z,76.81
2018-10-21T03:11:07.984Z,77.22
2018-10-21T03:13:36.073Z,77.31
2018-10-21T03:16:04.580Z,77.69
2018-10-21T03:18:32.756Z,77.32
2018-10-21T03:21:01.709Z,77.65
2018-10-21T03:23:29.724Z,78.21
2018-10-21T03:25:57.981Z,78.37
2018-10-21T03:28:26.037Z,78.35
2018-10-21T03:30:54.128Z,78.48
2018-10-21T03:33:22.383Z,78.53
2018-10-21T03:35:50.259Z,77.78
2018-10-21T03:38:18.344Z,78.53
2018-10-21T03:40:46.411Z,77.95
2018-10-21T03:43:14.475Z,78.15
2018-10-21T03:45:42.545Z,78.26
2018-10-21T03:48:10.616Z,78.28
2018-10-21T03:50:38.672Z,78.03
2018-10-21T03:53:06.732Z,78.13
2018-10-21T03:55:36.566Z,78.54
2018-10-21T03:58:05.368Z,78.02
2018-10-21T04:00:33.468Z,78.13
2018-10-21T04:03:01.569Z,78.35
2018-10-21T04:05:29.661Z,77.69
2018-10-21T04:07:57.720Z,77.55
2018-10-21T04:10:25.800Z,78.13
2018-10-21T04:12:53.856Z,77.43
2018-10-21T04:15:21.921Z,77.96
2018-10-21T04:17:49.983Z,78.00
2018-10-21T04:20:18.060Z,77.55
2018-10-21T04:23:01.748Z,77.71
2018-10-21T04:25:30.920Z,77.37
2018-10-21T04:27:59.837Z,78.10
2018-10-21T04:30:30.038Z,78.07
2018-10-21T04:34:03.312Z,77.56
2018-10-21T04:36:32.733Z,77.01
2018-10-21T04:40:14.163Z,77.45
2018-10-21T04:42:42.309Z,77.83
2018-10-21T04:45:11.084Z,77.93
2018-10-21T04:47:39.139Z,78.05
2018-10-21T04:50:08.490Z,78.37
2018-10-21T04:52:36.542Z,77.76
2018-10-21T04:55:09.197Z,78.38
2018-10-21T04:57:38.381Z,78.08
2018-10-21T05:00:11.376Z,78.25
2018-10-21T05:02:39.473Z,77.16
2018-10-21T05:05:08.384Z,77.57
2018-10-21T05:07:36.674Z,78.16
2018-10-21T05:10:07.700Z,78.09
2018-10-21T05:12:35.700Z,77.88
2018-10-21T05:15:03.815Z,77.88
2018-10-21T05:17:31.855Z,78.04
2018-10-21T05:19:59.924Z,78.49
2018-10-21T05:22:27.996Z,77.86
2018-10-21T05:24:56.076Z,78.17
2018-10-21T05:27:24.141Z,78.39
2018-10-21T05:29:52.224Z,78.15
2018-10-21T05:32:20.297Z,77.65
2018-10-21T05:34:48.374Z,77.62
2018-10-21T05:37:16.457Z,78.50
2018-10-21T05:39:44.520Z,77.68
2018-10-21T05:42:12.580Z,77.67
2018-10-21T05:44:40.677Z,78.14
2018-10-21T05:47:08.760Z,77.49
2018-10-21T05:49:36.840Z,77.44
2018-10-21T05:52:04.999Z,77.37
2018-10-21T05:54:37.228Z,77.27
2018-10-21T05:57:05.402Z,77.50
2018-10-21T05:59:33.451Z,77.12
2018-10-21T06:02:01.541Z,77.10
2018-10-21T06:04:29.605Z,77.49
2018-10-21T06:06:57.680Z,77.26
2018-10-21T06:09:25.740Z,77.69
2018-10-21T06:11:53.799Z,77.32
2018-10-21T06:14:21.900Z,77.07
2018-10-21T06:16:52.529Z,77.71
2018-10-21T06:19:24.557Z,76.89
2018-10-21T06:21:54.455Z,77.68
2018-10-21T06:24:22.496Z,77.75
2018-10-21T06:26:50.572Z,77.46
2018-10-21T06:29:18.636Z,78.07
2018-10-21T06:31:46.697Z,77.95
2018-10-21T06:34:14.760Z,78.18
2018-10-21T06:36:42.893Z,78.07
2018-10-21T06:39:10.991Z,77.38
2018-10-21T06:41:38.953Z,77.86
2018-10-21T06:44:07.132Z,77.67
2018-10-21T06:46:35.216Z,77.74
2018-10-21T06:49:03.329Z,78.48
2018-10-21T06:51:31.409Z,78.48
2018-10-21T06:53:59.548Z,77.71
2018-10-21T06:56:27.666Z,78.33
2018-10-21T06:58:55.673Z,77.85
2018-10-21T07:01:23.753Z,78.00
2018-10-21T07:03:51.816Z,77.93
2018-10-21T07:06:23.159Z,78.39
2018-10-21T07:08:52.387Z,78.15
2018-10-21T07:11:20.455Z,78.08
2018-10-21T07:13:48.515Z,78.32
2018-10-21T07:16:16.783Z,78.02
2018-10-21T07:18:45.619Z,78.49
2018-10-21T07:21:13.800Z,78.31
2018-10-21T07:23:41.913Z,78.49
2018-10-21T07:26:10.024Z,78.29
2018-10-21T07:28:38.144Z,78.12
2018-10-21T07:31:06.204Z,78.16
2018-10-21T07:33:34.260Z,77.79
2018-10-21T07:36:02.328Z,77.77
2018-10-21T07:38:30.409Z,77.49
2018-10-21T07:40:58.469Z,77.75
2018-10-21T07:43:26.584Z,77.90
2018-10-21T07:45:54.659Z,77.42
2018-10-21T07:48:22.720Z,77.25
2018-10-21T07:50:50.797Z,77.25
2018-10-21T07:53:18.895Z,77.47
2018-10-21T07:55:47.016Z,77.57
2018-10-21T07:58:15.072Z,77.21
2018-10-21T08:00:43.115Z,76.83
2018-10-21T08:03:11.196Z,76.77
2018-10-21T08:05:50.576Z,76.75
2018-10-21T08:08:26.303Z,76.41
2018-10-21T08:10:54.316Z,76.29
2018-10-21T08:13:24.669Z,76.20
2018-10-21T08:15:52.752Z,76.40
2018-10-21T08:18:20.824Z,76.20
2018-10-21T08:20:49.896Z,76.65
2018-10-21T08:23:18.694Z,75.99
2018-10-21T08:25:48.189Z,75.84
2018-10-21T08:28:16.409Z,75.93
2018-10-21T08:30:44.385Z,75.32
2018-10-21T08:33:12.496Z,75.34
2018-10-21T08:35:40.608Z,75.23
2018-10-21T08:38:08.738Z,75.67
2018-10-21T08:40:36.804Z,75.34
2018-10-21T08:43:05.185Z,75.24
2018-10-21T08:45:33.280Z,74.95
2018-10-21T08:48:01.373Z,74.98
2018-10-21T08:50:29.434Z,74.48
2018-10-21T08:52:57.524Z,74.60
2018-10-21T08:55:25.634Z,74.10
2018-10-21T08:57:53.812Z,74.33
2018-10-21T09:02:49.018Z,74.40
2018-10-21T09:05:18.453Z,74.18
2018-10-21T09:07:46.792Z,74.26
2018-10-21T09:10:17.726Z,74.26
2018-10-21T09:12:45.670Z,74.50
2018-10-21T09:15:15.432Z,74.20
2018-10-21T09:17:43.440Z,74.10
2018-10-21T09:20:13.717Z,74.06
2018-10-21T09:22:41.781Z,74.09
2018-10-21T09:25:10.772Z,73.82
2018-10-21T09:27:39.648Z,73.32
2018-10-21T09:30:09.064Z,73.54
2018-10-21T09:32:37.199Z,73.04
2018-10-21T09:35:06.328Z,72.94
2018-10-21T09:37:34.421Z,73.17
2018-10-21T09:40:02.526Z,72.68
2018-10-21T09:42:30.576Z,72.83
2018-10-21T09:44:58.665Z,72.29
2018-10-21T09:47:26.825Z,71.82
2018-10-21T09:49:54.945Z,71.78
2018-10-21T09:52:22.999Z,71.86
2018-10-21T09:54:51.129Z,71.90
2018-10-21T09:57:19.181Z,71.59
2018-10-21T09:59:47.265Z,71.46
2018-10-21T10:02:20.576Z,71.51
2018-10-21T10:04:48.708Z,70.82
2018-10-21T10:07:16.885Z,70.76
2018-10-21T10:09:44.905Z,70.50
2018-10-21T10:12:13.011Z,70.24
2018-10-21T10:14:41.156Z,70.09
2018-10-21T10:17:09.232Z,69.50
2018-10-21T10:19:37.326Z,69.55
2018-10-21T10:22:05.460Z,68.68
2018-10-21T10:24:33.453Z,69.01
2018-10-21T10:27:01.560Z,68.33
2018-10-21T10:29:29.680Z,68.27
2018-10-21T10:31:57.833Z,68.21
2018-10-21T10:34:25.925Z,67.73
2018-10-21T10:36:54.056Z,67.67
2018-10-21T10:39:22.097Z,66.88
2018-10-21T10:41:50.192Z,66.97
2018-10-21T10:44:18.292Z,66.52
2018-10-21T10:46:46.420Z,66.52
2018-10-21T10:49:14.687Z,65.93
2018-10-21T10:51:42.688Z,66.45
2018-10-21T10:54:10.748Z,65.94
2018-10-21T10:56:38.828Z,65.57
2018-10-21T10:59:06.979Z,65.68
2018-10-21T11:01:35.080Z,65.28
2018-10-21T11:04:03.197Z,64.83
2018-10-21T11:06:31.271Z,64.77
2018-10-21T11:08:59.385Z,64.24
2018-10-21T11:11:27.510Z,63.84
2018-10-21T11:13:55.592Z,64.18
2018-10-21T11:16:23.686Z,63.91
2018-10-21T11:18:51.761Z,63.48
2018-10-21T11:21:19.852Z,63.32
2018-10-21T11:23:47.958Z,63.27
2018-10-21T11:26:16.054Z,62.13
2018-10-21T11:28:44.118Z,61.55
2018-10-21T11:31:12.291Z,61.75
2018-10-21T11:33:40.299Z,62.09
2018-10-21T11:36:08.377Z,61.84
2018-10-21T11:38:36.429Z,61.39
2018-10-21T11:41:04.563Z,61.75
2018-10-21T11:43:32.640Z,61.26
2018-10-21T11:46:00.800Z,61.01
2018-10-21T11:48:28.815Z,60.23
2018-10-21T11:50:56.890Z,59.93
2018-10-21T11:53:24.957Z,59.89
2018-10-21T11:55:53.030Z,60.03
2018-10-21T11:58:21.131Z,59.59
2018-10-21T12:00:49.205Z,59.74
2018-10-21T12:03:17.304Z,59.44
2018-10-21T12:05:45.371Z,58.82
2018-10-21T12:08:13.747Z,59.68
2018-10-21T12:10:41.804Z,58.93
2018-10-21T12:13:09.924Z,58.76
2018-10-21T12:15:38.008Z,58.71
2018-10-21T12:18:06.449Z,58.88
2018-10-21T12:20:34.505Z,58.96
2018-10-21T12:23:02.659Z,58.20
2018-10-21T12:25:30.668Z,58.73
2018-10-21T12:27:58.727Z,58.63
2018-10-21T12:30:26.774Z,58.50
2018-10-21T12:32:54.857Z,58.06
2018-10-21T12:35:22.899Z,57.88
2018-10-21T12:37:50.971Z,57.57
2018-10-21T12:40:19.060Z,57.15
2018-10-21T12:42:47.112Z,57.41
2018-10-21T12:45:15.282Z,58.27
2018-10-21T12:47:43.280Z,57.31
2018-10-21T12:50:11.336Z,57.65
2018-10-21T12:52:39.400Z,57.34
2018-10-21T12:55:08.369Z,56.82
2018-10-21T12:57:37.055Z,56.76
2018-10-21T13:00:06.444Z,56.77
2018-10-21T13:02:35.094Z,57.26
2018-10-21T13:05:03.906Z,57.25
2018-10-21T13:07:31.999Z,57.41
2018-10-21T13:10:00.118Z,56.71
2018-10-21T13:12:28.144Z,56.82
2018-10-21T13:14:56.233Z,56.95
2018-10-21T13:17:24.381Z,56.76
2018-10-21T13:19:52.492Z,57.00
2018-10-21T13:22:21.280Z,57.49
2018-10-21T13:24:50.513Z,57.09
2018-10-21T13:27:18.604Z,56.69
2018-10-21T13:29:46.681Z,56.72
2018-10-21T13:32:14.772Z,57.24
2018-10-21T13:34:42.957Z,57.33
2018-10-21T13:37:11.147Z,56.73
2018-10-21T13:39:39.136Z,56.83
2018-10-21T13:42:07.203Z,57.00
2018-10-21T13:44:35.274Z,57.18
2018-10-21T13:47:03.341Z,56.98
2018-10-21T13:49:31.393Z,57.06
2018-10-21T13:51:59.676Z,57.07
2018-10-21T13:54:27.537Z,57.68
2018-10-21T13:56:55.608Z,57.48
2018-10-21T13:59:23.676Z,57.36
2018-10-21T14:01:51.728Z,57.14
2018-10-21T14:04:19.871Z,58.88
2018-10-21T14:06:47.945Z,58.01
2018-10-21T14:09:15.948Z,57.66
2018-10-21T14:11:44.022Z,57.46
2018-10-21T14:14:12.376Z,57.37
2018-10-21T14:16:40.800Z,57.67
2018-10-21T14:19:09.143Z,58.29
2018-10-21T14:21:37.208Z,58.11
2018-10-21T14:24:05.418Z,57.29
2018-10-21T14:26:33.528Z,56.99
2018-10-21T14:29:01.602Z,56.92
2018-10-21T14:31:29.653Z,56.65
2018-10-21T14:33:57.714Z,56.57
2018-10-21T14:36:25.848Z,56.57
2018-10-21T14:38:53.983Z,56.71
2018-10-21T14:41:22.052Z,56.23
2018-10-21T14:43:50.448Z,56.29
2018-10-21T14:46:18.512Z,56.26
2018-10-21T14:48:46.601Z,56.07
2018-10-21T14:51:14.748Z,56.06
2018-10-21T14:53:42.731Z,56.06
2018-10-21T14:56:10.843Z,56.08
2018-10-21T14:58:38.881Z,56.35
2018-10-21T15:01:06.948Z,56.56
2018-10-21T15:03:35.305Z,56.84
2018-10-21T15:06:03.427Z,56.61
2018-10-21T15:08:31.443Z,57.07
2018-10-21T15:10:59.513Z,57.28
2018-10-21T15:13:27.587Z,57.00
2018-10-21T15:15:55.695Z,57.15
2018-10-21T15:18:23.737Z,57.31
2018-10-21T15:20:51.813Z,57.44
2018-10-21T15:23:19.895Z,57.87
2018-10-21T15:25:47.949Z,57.80
2018-10-21T15:28:16.059Z,57.74
2018-10-21T15:30:44.108Z,58.19
2018-10-21T15:33:12.181Z,58.03
2018-10-21T15:35:40.235Z,57.97
2018-10-21T15:38:08.800Z,58.27
2018-10-21T15:40:36.796Z,58.16
2018-10-21T15:43:04.902Z,58.43
2018-10-21T15:45:33.016Z,57.91
2018-10-21T15:48:01.046Z,58.10
2018-10-21T15:50:29.155Z,58.43
2018-10-21T15:52:57.166Z,58.48
2018-10-21T15:55:25.228Z,58.24
2018-10-21T15:57:53.288Z,58.37
2018-10-21T16:00:21.565Z,58.06
2018-10-21T16:02:49.628Z,58.17
2018-10-21T16:05:17.701Z,58.52
2018-10-21T16:07:45.752Z,58.30
2018-10-21T16:10:13.835Z,58.51
2018-10-21T16:12:41.860Z,58.53
2018-10-21T16:15:12.421Z,58.75
2018-10-21T16:17:40.481Z,58.22
2018-10-21T16:20:08.652Z,58.82
2018-10-21T16:22:38.257Z,58.32
2018-10-21T16:25:07.150Z,58.34
2018-10-21T16:27:35.201Z,58.89
2018-10-21T16:30:03.340Z,58.62
2018-10-21T16:32:31.514Z,58.45
2018-10-21T16:34:59.460Z,58.32
2018-10-21T16:37:27.587Z,58.72
2018-10-21T16:39:55.640Z,59.11
2018-10-21T16:42:23.692Z,59.26
2018-10-21T16:44:51.788Z,58.79
2018-10-21T16:47:19.852Z,58.96
2018-10-21T16:49:47.928Z,58.61
2018-10-21T16:52:15.979Z,58.69
2018-10-21T16:54:44.105Z,58.84
2018-10-21T16:57:12.178Z,58.84
2018-10-21T16:59:40.360Z,58.37
2018-10-21T17:02:08.380Z,58.70
2018-10-21T17:04:36.435Z,58.60
2018-10-21T17:07:04.630Z,58.76
2018-10-21T17:09:32.821Z,58.76
2018-10-21T17:12:00.713Z,58.74
2018-10-21T17:14:28.768Z,58.86
2018-10-21T17:16:56.824Z,58.94
2018-10-21T17:19:24.867Z,58.97
2018-10-21T17:21:52.941Z,59.05
2018-10-21T17:24:21.032Z,58.76
2018-10-21T17:26:49.205Z,59.40
2018-10-21T17:29:17.247Z,59.23
2018-10-21T17:31:45.317Z,59.51
2018-10-21T17:34:13.365Z,58.89
2018-10-21T17:36:41.455Z,59.40
2018-10-21T17:39:11.780Z,59.31
2018-10-21T17:41:40.678Z,59.38
2018-10-21T17:44:08.738Z,59.58
2018-10-21T17:46:37.199Z,59.08
2018-10-21T17:49:05.273Z,60.04
2018-10-21T17:51:33.372Z,59.46
2018-10-21T17:54:01.479Z,59.66
2018-10-21T17:56:29.540Z,59.57
2018-10-21T17:58:57.612Z,59.32
2018-10-21T18:01:25.704Z,59.08
2018-10-21T18:03:53.762Z,59.80
2018-10-21T18:06:21.884Z,59.69
2018-10-21T18:08:49.956Z,59.60
2018-10-21T18:11:18.022Z,59.53
2018-10-21T18:13:46.123Z,59.63
2018-10-21T18:16:14.260Z,59.50
2018-10-21T18:18:42.259Z,59.86
2018-10-21T18:21:10.324Z,59.71
2018-10-21T18:23:38.399Z,59.67
2018-10-21T18:26:06.800Z,59.65
2018-10-21T18:28:34.767Z,59.65
2018-10-21T18:31:08.851Z,59.65
2018-10-21T18:33:42.737Z,60.15
2018-10-21T18:36:10.788Z,59.91
2018-10-21T18:38:42.017Z,59.90
2018-10-21T18:41:10.384Z,59.74
2018-10-21T18:43:38.349Z,59.99
2018-10-21T18:46:06.441Z,60.14
2018-10-21T18:48:34.523Z,60.39
2018-10-21T18:51:02.793Z,60.56
2018-10-21T18:53:30.881Z,60.29
2018-10-21T18:55:58.975Z,60.37
2018-10-21T18:58:27.107Z,60.31
2018-10-21T19:00:55.129Z,60.57
2018-10-21T19:03:23.176Z,60.83
2018-10-21T19:05:51.235Z,60.72
2018-10-21T19:08:19.313Z,60.81
2018-10-21T19:10:47.737Z,60.87
2018-10-21T19:13:15.915Z,61.09
2018-10-21T19:15:43.947Z,61.11
2018-10-21T19:18:12.029Z,61.10
2018-10-21T19:20:40.097Z,60.98
2018-10-21T19:23:08.188Z,61.68
2018-10-21T19:25:36.289Z,61.53
2018-10-21T19:28:04.501Z,61.20
2018-10-21T19:30:33.512Z,61.40
2018-10-21T19:33:01.581Z,61.21
2018-10-21T19:35:29.661Z,61.98
2018-10-21T19:37:57.747Z,61.48
2018-10-21T19:40:25.828Z,61.73
2018-10-21T19:42:53.977Z,61.60
2018-10-21T19:45:21.976Z,61.80
2018-10-21T19:47:50.253Z,61.72
2018-10-21T19:50:18.380Z,61.61
2018-10-21T19:52:46.591Z,61.70
2018-10-21T19:55:14.840Z,61.63
2018-10-21T19:57:43.185Z,61.74
2018-10-21T20:00:13.722Z,61.51
2018-10-21T20:02:41.876Z,61.85
2018-10-21T20:05:10.478Z,61.88
2018-10-21T20:07:38.742Z,61.79
2018-10-21T20:10:08.971Z,62.44
2018-10-21T20:12:37.237Z,61.57
2018-10-21T20:15:06.237Z,61.70
2018-10-21T20:17:34.332Z,61.76
2018-10-21T20:20:02.392Z,61.70
2018-10-21T20:22:30.440Z,61.27
2018-10-21T20:24:58.520Z,61.81
2018-10-21T20:27:26.598Z,61.89
2018-10-21T20:29:54.656Z,62.13
2018-10-21T20:32:22.728Z,61.90
2018-10-21T20:34:50.813Z,62.23
2018-10-21T20:37:18.932Z,61.76
2018-10-21T20:39:47.010Z,61.86
2018-10-21T20:42:15.115Z,61.96
2018-10-21T20:44:43.153Z,61.70
2018-10-21T20:47:11.228Z,61.84
2018-10-21T20:49:39.692Z,62.11
2018-10-21T20:52:07.794Z,62.01
2018-10-21T20:54:41.365Z,61.89
2018-10-21T20:57:10.525Z,61.90
2018-10-21T20:59:40.025Z,61.87
2018-10-21T21:02:08.980Z,61.77
2018-10-21T21:04:37.089Z,62.15
2018-10-21T21:07:05.844Z,61.95
2018-10-21T21:09:33.897Z,62.21
2018-10-21T21:12:01.981Z,61.83
2018-10-21T21:14:30.060Z,62.01
2018-10-21T21:16:58.114Z,62.33
2018-10-21T21:19:26.200Z,69.65
2018-10-21T21:21:54.248Z,70.35
2018-10-21T21:24:22.345Z,66.61
2018-10-21T21:26:50.392Z,69.37
2018-10-21T21:29:18.572Z,69.10
2018-10-21T21:31:47.026Z,67.45
2018-10-21T21:34:15.742Z,67.09
2018-10-21T21:36:43.790Z,68.13
2018-10-21T21:39:14.079Z,68.99
2018-10-21T21:41:43.438Z,68.38
2018-10-21T21:44:11.501Z,67.43
2018-10-21T21:46:40.327Z,64.07
2018-10-21T21:49:09.467Z,63.84
2018-10-21T21:51:37.600Z,63.11
2018-10-21T21:54:06.540Z,63.10
2018-10-21T21:56:34.609Z,62.52
2018-10-21T21:59:02.670Z,62.45
2018-10-21T22:01:30.716Z,62.79
2018-10-21T22:03:58.789Z,62.79
2018-10-21T22:06:26.927Z,62.72
2018-10-21T22:08:54.978Z,62.96
2018-10-21T22:11:23.036Z,63.37
2018-10-21T22:13:51.090Z,63.20
2018-10-21T22:16:19.157Z,63.54
2018-10-21T22:18:47.200Z,63.50
2018-10-21T22:21:15.267Z,63.56
2018-10-21T22:23:43.311Z,63.65
2018-10-21T22:26:11.365Z,63.57
2018-10-21T22:28:39.420Z,63.50
2018-10-21T22:31:07.478Z,63.94
2018-10-21T22:33:35.533Z,63.82
2018-10-21T22:36:03.598Z,63.73
2018-10-21T22:38:31.728Z,63.81
2018-10-21T22:40:59.796Z,63.64
2018-10-21T22:43:27.889Z,64.00
2018-10-21T22:45:56.006Z,63.98
2018-10-21T22:48:24.064Z,63.62
2018-10-21T22:50:52.140Z,63.78
2018-10-21T22:53:20.211Z,63.99
2018-10-21T22:55:48.264Z,63.71
2018-10-21T22:58:16.379Z,63.85
2018-10-21T23:00:44.396Z,63.86
2018-10-21T23:03:12.456Z,64.05
2018-10-21T23:05:40.516Z,63.90
2018-10-21T23:08:08.576Z,63.76
2018-10-21T23:10:36.630Z,63.68
2018-10-21T23:13:04.676Z,63.94
2018-10-21T23:15:32.765Z,63.59
2018-10-21T23:18:00.834Z,63.78
2018-10-21T23:20:28.891Z,63.80
2018-10-21T23:22:56.976Z,63.71
2018-10-21T23:25:25.045Z,63.87
2018-10-21T23:27:53.088Z,63.97
2018-10-21T23:30:21.260Z,64.15
2018-10-21T23:32:49.237Z,64.26
2018-10-21T23:35:17.312Z,64.21
2018-10-21T23:37:45.389Z,64.33
2018-10-21T23:40:13.641Z,64.55
2018-10-21T23:42:41.625Z,64.55
2018-10-21T23:45:09.665Z,64.20
2018-10-21T23:47:37.763Z,64.09
2018-10-21T23:50:06.327Z,64.21
2018-10-21T23:52:34.392Z,64.09
2018-10-21T23:55:02.448Z,64.14
2018-10-21T23:57:30.528Z,63.94
2018-10-21T23:59:58.609Z,64.25
